Time;durP1;ratioP1;P1;durP2;ratioP2;P2;SDS_P1;SDS_P2;PMS_P1;PMS_P2;Temp;Humidity;BMP_temperature;BMP_pressure;BME280_temperature;BME280_humidity;BME280_pressure;Samples;Min_cycle;Max_cycle;Signal;HPM_P1;HPM_P2
2022/11/23 00:00:35;;;;;;;19.70;11.32;;;7.20;99.90;;;;;;5147667;27;20382;-79
2022/11/23 00:03:01;;;;;;;17.92;11.18;;;8.00;99.90;;;;;;5128837;27;20046;-79
2022/11/23 00:05:28;;;;;;;17.80;12.77;;;7.50;99.90;;;;;;5146891;27;20047;-79
2022/11/23 00:07:54;;;;;;;18.70;11.63;;;7.50;99.90;;;;;;5129174;27;20047;-79
2022/11/23 00:10:20;;;;;;;15.75;11.68;;;7.70;99.90;;;;;;5127873;27;20046;-79
2022/11/23 00:12:46;;;;;;;14.65;11.77;;;7.20;99.90;;;;;;5112129;27;20469;-79
2022/11/23 00:15:13;;;;;;;15.88;12.18;;;7.80;99.90;;;;;;5110635;27;20363;-78
2022/11/23 00:17:39;;;;;;;18.17;11.80;;;8.30;99.90;;;;;;5128007;27;20043;-79
2022/11/23 00:20:06;;;;;;;18.75;12.30;;;7.20;99.90;;;;;;5127935;27;20039;-79
2022/11/23 00:22:33;;;;;;;17.65;13.57;;;7.20;99.90;;;;;;5128159;27;20095;-79
2022/11/23 00:24:58;;;;;;;16.88;11.48;;;7.60;99.90;;;;;;5147404;27;20085;-79
2022/11/23 00:27:24;;;;;;;18.40;12.85;;;8.20;99.90;;;;;;5127777;27;20074;-78
2022/11/23 00:29:50;;;;;;;19.30;13.20;;;8.30;99.90;;;;;;5128350;27;20047;-78
2022/11/23 00:32:15;;;;;;;19.45;12.38;;;7.20;99.90;;;;;;5127082;27;20144;-78
2022/11/23 00:34:41;;;;;;;19.92;12.85;;;7.30;99.90;;;;;;5110838;27;20103;-78
2022/11/23 00:37:07;;;;;;;18.13;14.30;;;7.30;99.90;;;;;;5111010;27;20047;-78
2022/11/23 00:39:32;;;;;;;17.10;13.00;;;7.30;99.90;;;;;;5146560;27;20078;-78
2022/11/23 00:41:58;;;;;;;19.90;12.90;;;8.10;99.90;;;;;;5128577;27;20038;-78
2022/11/23 00:44:24;;;;;;;19.58;13.43;;;8.00;99.90;;;;;;5146213;27;20482;-78
2022/11/23 00:46:49;;;;;;;18.52;13.32;;;7.50;99.90;;;;;;5111440;27;20054;-78
2022/11/23 00:49:15;;;;;;;19.05;14.43;;;7.30;99.90;;;;;;5127062;27;20046;-78
2022/11/23 00:51:41;;;;;;;17.35;12.68;;;7.30;99.90;;;;;;5146178;27;20031;-78
2022/11/23 00:54:06;;;;;;;18.95;13.55;;;7.30;99.90;;;;;;5110596;27;20125;-78
2022/11/23 00:56:33;;;;;;;25.88;14.02;;;8.10;99.90;;;;;;5110579;27;20042;-78
2022/11/23 00:59:00;;;;;;;18.95;12.75;;;7.30;99.90;;;;;;5146936;27;20126;-78
2022/11/23 01:01:35;;;;;;;19.92;13.48;;;7.30;99.90;;;;;;5146657;27;20114;-79
2022/11/23 01:04:03;;;;;;;17.40;13.25;;;8.00;99.90;;;;;;5128813;27;20066;-78
2022/11/23 01:06:34;;;;;;;18.40;12.88;;;7.40;99.90;;;;;;5145052;27;20043;-78
2022/11/23 01:09:11;;;;;;;17.05;11.82;;;7.40;99.90;;;;;;5146490;27;20047;-78
2022/11/23 01:11:37;;;;;;;20.90;13.50;;;7.40;99.90;;;;;;5146114;27;20558;-78
2022/11/23 01:14:02;;;;;;;20.42;13.90;;;7.40;99.90;;;;;;5145950;27;20039;-78
2022/11/23 01:16:31;;;;;;;18.65;14.57;;;7.40;99.90;;;;;;5147031;27;20039;-78
2022/11/23 01:18:58;;;;;;;18.85;12.85;;;7.70;99.90;;;;;;5145801;27;20038;-78
2022/11/23 01:21:25;;;;;;;19.23;13.75;;;7.40;99.90;;;;;;5127986;27;20167;-78
2022/11/23 01:23:51;;;;;;;23.65;12.60;;;7.40;99.90;;;;;;5109782;27;20038;-78
2022/11/23 01:26:17;;;;;;;17.70;12.43;;;7.50;99.90;;;;;;5145960;27;20125;-78
2022/11/23 01:28:43;;;;;;;18.50;12.63;;;7.90;99.90;;;;;;5110898;27;20126;-78
2022/11/23 01:31:15;;;;;;;16.75;11.68;;;8.10;99.90;;;;;;5127392;27;20576;-78
2022/11/23 01:33:41;;;;;;;19.27;12.40;;;7.50;99.90;;;;;;5146629;27;20072;-78
2022/11/23 01:36:19;;;;;;;18.63;12.57;;;7.50;99.90;;;;;;5145301;27;20039;-78
2022/11/23 01:38:46;;;;;;;19.80;12.32;;;7.50;99.90;;;;;;5127112;27;20049;-78
2022/11/23 01:41:16;;;;;;;20.88;11.65;;;7.50;99.90;;;;;;5145469;27;20046;-79
2022/11/23 01:43:42;;;;;;;22.20;12.50;;;7.50;99.90;;;;;;5127655;27;20045;-79
2022/11/23 01:46:09;;;;;;;23.67;12.95;;;7.50;99.90;;;;;;5110782;27;20373;-79
2022/11/23 01:48:50;;;;;;;20.65;12.73;;;7.50;99.90;;;;;;5126493;27;20057;-79
2022/11/23 01:51:27;;;;;;;17.73;12.50;;;7.50;99.90;;;;;;5127606;27;20122;-79
2022/11/23 01:53:57;;;;;;;25.15;12.27;;;7.90;99.90;;;;;;5127168;27;20435;-79
2022/11/23 01:56:31;;;;;;;18.73;12.20;;;7.50;99.90;;;;;;5127323;27;20494;-78
2022/11/23 01:59:01;;;;;;;14.63;10.48;;;7.50;99.90;;;;;;5127358;27;20533;-78
2022/11/23 02:01:27;;;;;;;18.98;11.05;;;7.60;99.90;;;;;;5126512;27;20073;-78
2022/11/23 02:03:55;;;;;;;15.40;9.27;;;7.60;99.90;;;;;;5114208;27;20082;-78
2022/11/23 02:06:22;;;;;;;16.45;10.20;;;7.60;99.90;;;;;;5130219;27;20237;-78
2022/11/23 02:08:48;;;;;;;21.15;10.05;;;7.90;99.90;;;;;;5130729;27;20043;-78
2022/11/23 02:11:15;;;;;;;15.43;10.20;;;7.90;99.90;;;;;;5130277;27;20047;-78
2022/11/23 02:13:44;;;;;;;21.70;9.60;;;7.70;99.90;;;;;;5130699;27;20047;-78
2022/11/23 02:16:11;;;;;;;19.15;9.55;;;7.80;99.90;;;;;;5131285;27;20053;-78
2022/11/23 02:18:41;;;;;;;18.73;9.48;;;7.80;99.90;;;;;;5130531;27;20047;-78
2022/11/23 02:21:07;;;;;;;19.63;10.15;;;7.80;99.90;;;;;;5131574;27;20059;-78
2022/11/23 02:23:52;;;;;;;20.25;9.93;;;7.80;99.90;;;;;;5130781;27;20496;-78
2022/11/23 02:26:21;;;;;;;14.95;9.07;;;8.20;99.90;;;;;;5130937;27;20047;-78
2022/11/23 02:29:13;;;;;;;15.40;9.40;;;7.90;99.90;;;;;;5131390;27;20035;-78
2022/11/23 02:31:38;;;;;;;25.40;9.52;;;7.80;99.90;;;;;;5118295;27;20054;-78
2022/11/23 02:34:04;;;;;;;18.08;9.10;;;8.60;99.90;;;;;;5131140;27;20046;-78
2022/11/23 02:36:39;;;;;;;19.20;10.10;;;7.90;99.90;;;;;;5129897;27;20045;-79
2022/11/23 02:39:11;;;;;;;20.77;9.48;;;7.90;99.90;;;;;;5113230;27;20132;-79
2022/11/23 02:41:52;;;;;;;20.43;9.60;;;8.30;99.90;;;;;;5129947;27;20042;-77
2022/11/23 02:44:32;;;;;;;16.38;10.40;;;7.90;99.90;;;;;;5129539;27;20038;-78
2022/11/23 02:46:58;;;;;;;18.00;9.60;;;7.90;99.90;;;;;;5130809;27;20457;-78
2022/11/23 02:49:24;;;;;;;19.73;8.82;;;7.90;99.90;;;;;;5112838;27;20130;-78
2022/11/23 02:51:51;;;;;;;18.65;10.07;;;7.90;99.90;;;;;;5079117;27;20504;-78
2022/11/23 02:54:16;;;;;;;18.38;9.52;;;8.60;99.90;;;;;;5129627;27;20481;-78
2022/11/23 02:56:42;;;;;;;23.55;10.23;;;7.90;99.90;;;;;;5112425;27;20100;-78
2022/11/23 02:59:08;;;;;;;15.85;9.77;;;8.00;99.90;;;;;;5113416;27;20038;-79
2022/11/23 03:01:33;;;;;;;16.55;9.40;;;8.80;99.90;;;;;;5112192;27;20046;-79
2022/11/23 03:03:59;;;;;;;16.35;9.23;;;8.00;99.90;;;;;;5131085;27;20038;-78
2022/11/23 03:06:25;;;;;;;19.42;10.35;;;8.90;99.90;;;;;;5111524;27;20061;-78
2022/11/23 03:08:50;;;;;;;17.58;10.32;;;8.00;99.90;;;;;;5112846;27;20043;-79
2022/11/23 03:11:16;;;;;;;14.48;10.02;;;8.00;99.90;;;;;;5112462;27;20042;-79
2022/11/23 03:13:42;;;;;;;14.65;9.57;;;8.00;99.90;;;;;;5095073;27;20074;-79
2022/11/23 03:16:08;;;;;;;14.40;9.07;;;8.00;99.90;;;;;;5129804;27;20078;-78
2022/11/23 03:18:34;;;;;;;18.15;9.48;;;8.00;99.90;;;;;;5129116;27;20039;-78
2022/11/23 03:21:04;;;;;;;16.35;9.35;;;8.70;99.90;;;;;;5113666;27;20469;-78
2022/11/23 03:23:31;;;;;;;17.60;9.60;;;8.00;99.90;;;;;;5147730;27;20411;-78
2022/11/23 03:25:57;;;;;;;15.32;9.75;;;8.00;99.90;;;;;;5129894;27;20049;-78
2022/11/23 03:28:23;;;;;;;15.82;9.60;;;9.10;99.90;;;;;;5128362;27;20038;-79
2022/11/23 03:30:50;;;;;;;16.17;9.70;;;8.40;99.90;;;;;;5129169;27;20133;-78
2022/11/23 03:33:17;;;;;;;14.45;8.98;;;8.10;99.90;;;;;;5129353;27;20050;-79
2022/11/23 03:35:43;;;;;;;15.30;9.50;;;8.10;99.90;;;;;;5111526;27;20550;-79
2022/11/23 03:38:09;;;;;;;26.40;9.63;;;8.00;99.90;;;;;;5130381;27;20034;-78
2022/11/23 03:40:35;;;;;;;17.02;8.48;;;8.20;99.90;;;;;;5094362;27;20042;-79
2022/11/23 03:43:02;;;;;;;12.77;9.18;;;8.90;99.90;;;;;;5129720;27;20039;-78
2022/11/23 03:45:27;;;;;;;17.08;9.60;;;8.60;99.90;;;;;;5128452;27;20042;-78
2022/11/23 03:47:53;;;;;;;17.05;9.38;;;8.80;99.90;;;;;;5147920;27;20042;-78
2022/11/23 03:50:19;;;;;;;13.50;8.85;;;8.40;99.90;;;;;;5147663;27;20053;-78
2022/11/23 03:52:47;;;;;;;20.92;9.88;;;8.10;99.90;;;;;;5147465;27;20481;-78
2022/11/23 03:55:12;;;;;;;17.98;9.65;;;8.10;99.90;;;;;;5148397;27;20437;-77
2022/11/23 03:57:38;;;;;;;19.35;9.88;;;8.10;99.90;;;;;;5128466;27;20164;-77
2022/11/23 04:00:04;;;;;;;24.83;9.82;;;8.00;99.90;;;;;;5129361;27;20050;-77
2022/11/23 04:02:30;;;;;;;18.23;10.50;;;8.00;99.90;;;;;;5111101;27;20117;-77
2022/11/23 04:04:56;;;;;;;18.13;10.02;;;8.00;99.90;;;;;;5128942;27;20191;-77
2022/11/23 04:07:21;;;;;;;17.60;10.45;;;8.10;99.90;;;;;;5147495;27;20457;-77
2022/11/23 04:09:47;;;;;;;21.70;10.23;;;9.20;99.90;;;;;;5146814;27;20038;-77
2022/11/23 04:12:13;;;;;;;18.20;10.18;;;8.00;99.90;;;;;;5128834;27;20046;-76
2022/11/23 04:14:38;;;;;;;24.08;10.68;;;8.00;99.90;;;;;;5110710;27;20054;-77
2022/11/23 04:17:04;;;;;;;19.23;12.70;;;8.60;99.90;;;;;;5111967;27;20593;-76
2022/11/23 04:19:30;;;;;;;25.63;11.15;;;8.00;99.90;;;;;;5127477;27;20461;-77
2022/11/23 04:21:56;;;;;;;25.88;11.45;;;8.00;99.90;;;;;;5128346;27;20061;-77
2022/11/23 04:24:22;;;;;;;21.70;11.52;;;8.00;99.90;;;;;;5128422;27;20043;-76
2022/11/23 04:26:48;;;;;;;20.08;12.32;;;8.10;99.90;;;;;;5109706;27;20531;-77
2022/11/23 04:29:13;;;;;;;15.85;11.35;;;9.10;99.90;;;;;;5111480;27;20038;-77
2022/11/23 04:31:39;;;;;;;25.00;12.77;;;8.10;99.90;;;;;;5127558;27;20052;-77
2022/11/23 04:34:05;;;;;;;20.85;12.57;;;8.90;99.90;;;;;;5125503;27;20055;-78
2022/11/23 04:36:30;;;;;;;21.25;12.43;;;8.10;99.90;;;;;;5107405;27;20035;-77
2022/11/23 04:38:56;;;;;;;23.65;12.77;;;8.80;99.90;;;;;;5125439;27;20514;-77
2022/11/23 04:41:22;;;;;;;22.17;12.32;;;8.90;99.90;;;;;;5124856;27;20554;-78
2022/11/23 04:43:48;;;;;;;19.65;13.90;;;8.10;99.90;;;;;;5106960;27;20039;-77
2022/11/23 04:46:14;;;;;;;29.50;13.38;;;8.10;99.90;;;;;;5108205;27;20111;-77
2022/11/23 04:48:40;;;;;;;34.47;14.73;;;8.10;99.90;;;;;;5125439;27;20043;-77
2022/11/23 04:51:06;;;;;;;25.40;13.35;;;8.10;99.90;;;;;;5125238;28;20077;-77
2022/11/23 04:53:32;;;;;;;24.63;15.05;;;8.10;99.90;;;;;;5123999;28;20502;-77
2022/11/23 04:55:57;;;;;;;23.70;13.77;;;8.10;99.90;;;;;;5124869;28;20436;-77
2022/11/23 04:58:23;;;;;;;29.45;14.00;;;8.10;99.90;;;;;;5123858;28;20054;-77
2022/11/23 05:00:49;;;;;;;30.38;16.23;;;8.40;99.90;;;;;;5107029;28;20046;-77
2022/11/23 05:03:14;;;;;;;25.92;14.60;;;8.60;99.90;;;;;;5124037;28;20057;-76
2022/11/23 05:05:40;;;;;;;25.83;15.45;;;8.10;99.90;;;;;;5123655;28;20088;-76
2022/11/23 05:08:07;;;;;;;27.00;15.63;;;8.10;99.90;;;;;;5124749;28;20039;-77
2022/11/23 05:10:33;;;;;;;24.58;15.35;;;8.10;99.90;;;;;;5123423;28;20497;-77
2022/11/23 05:12:59;;;;;;;30.75;16.13;;;8.00;99.90;;;;;;5124708;28;20078;-77
2022/11/23 05:15:25;;;;;;;26.25;15.05;;;8.10;99.90;;;;;;5123467;28;20079;-77
2022/11/23 05:17:51;;;;;;;38.65;15.57;;;8.60;99.90;;;;;;5106808;28;20043;-77
2022/11/23 05:20:17;;;;;;;26.30;15.57;;;9.00;99.90;;;;;;5123952;28;20076;-77
2022/11/23 05:22:43;;;;;;;33.78;15.73;;;8.10;99.90;;;;;;5125036;27;20089;-77
2022/11/23 05:25:08;;;;;;;29.50;17.02;;;8.10;99.90;;;;;;5124301;28;20035;-77
2022/11/23 05:27:34;;;;;;;24.33;16.30;;;8.10;99.90;;;;;;5089548;28;20723;-77
2022/11/23 05:30:00;;;;;;;29.63;15.85;;;8.10;99.90;;;;;;5126330;27;20039;-77
2022/11/23 05:32:26;;;;;;;23.88;15.90;;;8.10;99.90;;;;;;5122745;28;20100;-77
2022/11/23 05:34:51;;;;;;;27.60;16.35;;;8.90;99.90;;;;;;5106847;28;20085;-77
2022/11/23 05:37:17;;;;;;;28.27;17.08;;;8.20;99.90;;;;;;5125345;27;20050;-77
2022/11/23 05:39:43;;;;;;;30.13;17.08;;;8.20;99.90;;;;;;5127913;27;20084;-78
2022/11/23 05:42:08;;;;;;;30.05;16.58;;;8.90;99.90;;;;;;5129762;27;20091;-78
2022/11/23 05:44:34;;;;;;;26.83;16.08;;;8.20;99.90;;;;;;5128895;27;20039;-78
2022/11/23 05:47:00;;;;;;;28.40;16.02;;;8.40;99.90;;;;;;5129860;27;20099;-77
2022/11/23 05:49:25;;;;;;;30.48;18.00;;;8.20;99.90;;;;;;5110073;27;20039;-78
2022/11/23 05:51:51;;;;;;;25.05;15.40;;;8.90;99.90;;;;;;5128112;27;20515;-78
2022/11/23 05:54:17;;;;;;;36.55;17.42;;;8.20;99.90;;;;;;5093316;27;20402;-78
2022/11/23 05:56:42;;;;;;;31.92;17.63;;;8.20;99.90;;;;;;5128909;27;20378;-77
2022/11/23 05:59:10;;;;;;;27.83;16.80;;;8.20;99.90;;;;;;5129001;27;20119;-77
2022/11/23 06:01:36;;;;;;;33.03;18.23;;;9.00;99.90;;;;;;5128468;27;20367;-78
2022/11/23 06:04:02;;;;;;;34.85;18.83;;;8.50;99.90;;;;;;5128468;27;20096;-77
2022/11/23 06:06:27;;;;;;;27.92;18.02;;;9.30;99.90;;;;;;5109788;27;20047;-78
2022/11/23 06:08:53;;;;;;;39.25;18.60;;;9.00;99.90;;;;;;5110484;27;20119;-78
2022/11/23 06:11:19;;;;;;;34.10;17.08;;;8.20;99.90;;;;;;5126928;27;20096;-78
2022/11/23 06:13:48;;;;;;;31.17;16.60;;;8.70;99.90;;;;;;5127308;27;20047;-79
2022/11/23 06:16:14;;;;;;;28.67;17.85;;;8.30;99.90;;;;;;5127658;27;20448;-78
2022/11/23 06:18:39;;;;;;;26.88;17.67;;;8.30;99.90;;;;;;5109053;27;20036;-78
2022/11/23 06:21:05;;;;;;;33.63;17.58;;;8.30;99.90;;;;;;5076574;27;20039;-78
2022/11/23 06:23:31;;;;;;;35.08;17.40;;;8.80;99.90;;;;;;5109093;27;20461;-79
2022/11/23 06:26:01;;;;;;;32.53;16.33;;;8.30;99.90;;;;;;5093271;27;20047;-78
2022/11/23 06:28:27;;;;;;;39.90;17.42;;;8.30;99.90;;;;;;5109991;27;20047;-79
2022/11/23 06:30:54;;;;;;;26.70;15.95;;;8.90;99.90;;;;;;5109739;27;20051;-78
2022/11/23 06:33:20;;;;;;;28.63;16.33;;;8.70;99.90;;;;;;5126672;27;20061;-78
2022/11/23 06:35:57;;;;;;;26.02;14.75;;;8.30;99.90;;;;;;5126689;27;20055;-79
2022/11/23 06:38:23;;;;;;;21.05;13.70;;;9.30;99.90;;;;;;5127822;27;20051;-81
2022/11/23 06:40:49;;;;;;;26.92;14.40;;;8.30;99.90;;;;;;5126325;27;20542;-80
2022/11/23 06:43:15;;;;;;;22.63;12.68;;;8.30;99.90;;;;;;5110187;27;20050;-79
2022/11/23 06:45:41;;;;;;;26.08;13.20;;;8.40;99.90;;;;;;5108749;27;20557;-79
2022/11/23 06:48:07;;;;;;;25.98;13.18;;;8.70;99.90;;;;;;5126034;27;20055;-79
2022/11/23 06:50:33;;;;;;;19.52;12.98;;;7.50;99.90;;;;;;5109145;27;20423;-79
2022/11/23 06:52:58;;;;;;;31.02;14.48;;;8.30;99.90;;;;;;5108673;27;20043;-80
2022/11/23 06:55:24;;;;;;;20.23;11.82;;;8.30;99.90;;;;;;5126930;27;20050;-79
2022/11/23 06:57:50;;;;;;;21.92;12.30;;;8.20;99.90;;;;;;5125220;27;20045;-79
2022/11/23 07:00:18;;;;;;;20.52;10.90;;;9.10;99.90;;;;;;5110209;27;20542;-79
2022/11/23 07:02:49;;;;;;;19.35;11.73;;;8.30;99.90;;;;;;5125269;27;20039;-82
2022/11/23 07:05:15;;;;;;;25.98;12.90;;;8.30;99.90;;;;;;5125815;27;20122;-93
2022/11/23 07:07:40;;;;;;;25.40;11.95;;;8.20;99.90;;;;;;5108728;27;20130;-80
2022/11/23 07:10:07;;;;;;;17.55;11.10;;;8.20;99.90;;;;;;5125632;27;20255;-81
2022/11/23 07:12:32;;;;;;;25.45;10.75;;;8.20;99.90;;;;;;5126383;27;20569;-81
2022/11/23 07:14:58;;;;;;;16.00;9.02;;;8.20;99.90;;;;;;5108436;27;20078;-80
2022/11/23 07:17:23;;;;;;;22.48;10.13;;;8.20;99.90;;;;;;5092604;27;20051;-80
2022/11/23 07:19:49;;;;;;;20.80;8.68;;;8.80;99.90;;;;;;5090748;27;20396;-81
2022/11/23 07:22:15;;;;;;;13.27;8.85;;;8.20;99.90;;;;;;5125718;27;20050;-81
2022/11/23 07:24:40;;;;;;;22.58;10.00;;;8.50;99.90;;;;;;5127085;27;20035;-81
2022/11/23 07:27:06;;;;;;;13.57;9.02;;;8.20;99.90;;;;;;5126249;27;20055;-81
2022/11/23 07:29:32;;;;;;;13.75;8.27;;;8.20;99.90;;;;;;5127708;27;20043;-81
2022/11/23 07:31:57;;;;;;;19.52;8.85;;;8.20;99.90;;;;;;5128554;27;20122;-81
2022/11/23 07:34:23;;;;;;;19.77;8.55;;;8.80;99.90;;;;;;5148554;27;20043;-81
2022/11/23 07:36:49;;;;;;;17.20;8.68;;;8.70;99.90;;;;;;5147015;27;20316;-82
2022/11/23 07:39:14;;;;;;;24.73;8.75;;;8.10;99.90;;;;;;5094705;27;20067;-81
2022/11/23 07:41:40;;;;;;;19.00;8.10;;;8.10;99.90;;;;;;5128864;27;20081;-81
2022/11/23 07:44:06;;;;;;;17.42;7.97;;;8.20;99.90;;;;;;5111333;27;20050;-82
2022/11/23 07:46:31;;;;;;;15.00;6.97;;;8.10;99.90;;;;;;5129091;27;20045;-82
2022/11/23 07:49:01;;;;;;;15.32;7.38;;;8.10;99.90;;;;;;5127975;27;20180;-81
2022/11/23 07:51:27;;;;;;;17.85;7.72;;;8.80;99.90;;;;;;5112397;27;20058;-82
2022/11/23 07:53:53;;;;;;;19.13;7.57;;;8.50;99.90;;;;;;5127534;27;20148;-83
2022/11/23 07:56:19;;;;;;;11.77;7.50;;;8.10;99.90;;;;;;5128528;27;20133;-84
2022/11/23 07:58:44;;;;;;;16.83;7.43;;;8.80;99.90;;;;;;5111323;27;20051;-81
2022/11/23 08:01:16;;;;;;;13.13;6.90;;;9.10;99.90;;;;;;5127934;27;20119;-81
2022/11/23 08:03:43;;;;;;;19.05;8.40;;;8.20;99.90;;;;;;5112061;27;20512;-81
2022/11/23 08:06:10;;;;;;;14.82;7.03;;;8.10;99.90;;;;;;5146479;27;20047;-82
2022/11/23 08:08:35;;;;;;;17.55;6.43;;;8.10;99.90;;;;;;5129575;27;20042;-81
2022/11/23 08:11:01;;;;;;;14.13;6.55;;;8.20;99.90;;;;;;5127409;27;20052;-81
2022/11/23 08:13:27;;;;;;;21.50;6.82;;;8.10;99.90;;;;;;5128540;27;20042;-81
2022/11/23 08:15:52;;;;;;;19.67;6.65;;;8.20;99.90;;;;;;5127885;27;20119;-81
2022/11/23 08:18:18;;;;;;;13.43;6.95;;;8.10;99.90;;;;;;5093398;27;20074;-81
2022/11/23 08:20:44;;;;;;;17.75;6.75;;;8.20;99.90;;;;;;5128381;27;20057;-81
2022/11/23 08:23:09;;;;;;;13.70;5.97;;;8.30;99.90;;;;;;5110679;27;20155;-81
2022/11/23 08:25:35;;;;;;;22.00;6.78;;;8.20;99.90;;;;;;5111508;27;20107;-81
2022/11/23 08:28:03;;;;;;;11.30;5.45;;;8.20;99.90;;;;;;5093017;27;20508;-81
2022/11/23 08:30:30;;;;;;;14.52;5.57;;;8.30;99.90;;;;;;5128727;27;20485;-81
2022/11/23 08:32:55;;;;;;;12.88;5.40;;;8.70;99.90;;;;;;5145923;27;20063;-81
2022/11/23 08:35:21;;;;;;;18.73;5.22;;;8.30;99.90;;;;;;5127351;27;20401;-81
2022/11/23 08:37:47;;;;;;;22.23;5.60;;;8.30;99.90;;;;;;5127736;27;20058;-81
2022/11/23 08:40:13;;;;;;;16.35;5.28;;;8.30;99.90;;;;;;5127029;27;20046;-81
2022/11/23 08:42:39;;;;;;;17.52;4.95;;;8.30;99.90;;;;;;5111828;27;20827;-81
2022/11/23 08:45:05;;;;;;;10.57;4.10;;;8.30;99.90;;;;;;5127097;27;20035;-81
2022/11/23 08:47:32;;;;;;;10.75;4.63;;;8.30;99.90;;;;;;5111254;27;20035;-81
2022/11/23 08:50:01;;;;;;;13.55;4.97;;;8.30;99.90;;;;;;5127161;27;20043;-81
2022/11/23 08:52:26;;;;;;;16.98;5.43;;;9.40;99.90;;;;;;5127693;27;20053;-81
2022/11/23 08:54:52;;;;;;;13.95;5.50;;;9.10;99.90;;;;;;5111262;27;20501;-80
2022/11/23 08:57:18;;;;;;;11.25;4.72;;;8.40;99.90;;;;;;5110406;27;20054;-81
2022/11/23 08:59:43;;;;;;;18.33;4.65;;;8.40;99.90;;;;;;5111252;27;20042;-81
2022/11/23 09:02:12;;;;;;;14.93;4.22;;;8.40;99.90;;;;;;5127178;27;20039;-80
2022/11/23 09:04:39;;;;;;;13.90;4.40;;;8.50;99.90;;;;;;5111587;27;20046;-80
2022/11/23 09:07:06;;;;;;;19.58;5.28;;;8.40;99.90;;;;;;5109832;27;20039;-80
2022/11/23 09:09:32;;;;;;;14.70;4.85;;;8.50;99.90;;;;;;5127212;27;20042;-80
2022/11/23 09:11:57;;;;;;;17.48;5.55;;;8.50;99.90;;;;;;5094214;27;20061;-80
2022/11/23 09:14:23;;;;;;;15.93;5.90;;;8.50;99.90;;;;;;5096757;27;20054;-80
2022/11/23 09:16:49;;;;;;;15.32;4.43;;;9.00;99.90;;;;;;5131927;27;20042;-80
2022/11/23 09:19:14;;;;;;;15.98;4.38;;;9.60;99.90;;;;;;5131496;27;20038;-80
2022/11/23 09:21:41;;;;;;;11.90;3.70;;;8.70;99.90;;;;;;5114714;27;20041;-81
2022/11/23 09:24:12;;;;;;;18.27;4.28;;;9.40;99.90;;;;;;5113624;27;20039;-80
2022/11/23 09:26:38;;;;;;;15.95;4.43;;;8.70;99.90;;;;;;5131420;27;20438;-81
2022/11/23 09:29:05;;;;;;;13.85;4.18;;;9.60;99.90;;;;;;5130983;27;20043;-81
2022/11/23 09:31:30;;;;;;;13.80;4.38;;;8.80;99.90;;;;;;5130951;27;20061;-80
2022/11/23 09:33:56;;;;;;;12.88;3.70;;;8.70;99.90;;;;;;5114615;27;20405;-80
2022/11/23 09:36:22;;;;;;;15.75;5.25;;;8.80;99.90;;;;;;5113367;27;20084;-80
2022/11/23 09:38:49;;;;;;;15.82;4.25;;;9.10;99.90;;;;;;5114947;27;20047;-81
2022/11/23 09:41:49;;;;;;;11.52;3.90;;;8.90;99.90;;;;;;5113330;27;20174;-80
2022/11/23 09:44:51;;;;;;;16.58;3.65;;;8.90;99.90;;;;;;5130919;27;20102;-81
2022/11/23 09:47:38;;;;;;;19.08;4.00;;;8.90;99.90;;;;;;5131952;27;20047;-81
2022/11/23 09:50:08;;;;;;;11.30;3.90;;;9.00;99.90;;;;;;5130672;27;20775;-81
2022/11/23 09:52:44;;;;;;;18.38;3.75;;;9.80;99.90;;;;;;5130466;27;20098;-81
2022/11/23 09:55:33;;;;;;;14.93;3.08;;;9.20;99.90;;;;;;5114242;27;20046;-81
2022/11/23 09:58:05;;;;;;;12.82;3.42;;;9.80;99.90;;;;;;5129848;27;20180;-81
2022/11/23 10:00:41;;;;;;;16.23;4.10;;;9.20;99.90;;;;;;5097126;27;20523;-81
2022/11/23 10:03:14;;;;;;;13.70;3.15;;;9.90;99.90;;;;;;5130643;27;20042;-81
2022/11/23 10:05:43;;;;;;;;;;;9.20;99.90;;;;;;5113493;27;20042;-81
2022/11/23 10:08:35;;;;;;;11.13;3.38;;;9.20;99.90;;;;;;5113963;27;19919;-80
2022/11/23 10:11:23;;;;;;;10.60;2.88;;;9.20;99.90;;;;;;5113188;27;20039;-80
2022/11/23 10:14:26;;;;;;;13.93;4.13;;;9.30;99.90;;;;;;5130171;27;20150;-81
2022/11/23 10:17:02;;;;;;;10.63;3.47;;;9.30;99.90;;;;;;5113704;27;20129;-80
2022/11/23 10:19:33;;;;;;;17.20;2.80;;;9.30;99.90;;;;;;5129534;27;20043;-81
2022/11/23 10:22:19;;;;;;;11.63;4.00;;;10.40;99.90;;;;;;5113639;27;20046;-80
2022/11/23 10:24:50;;;;;;;18.45;3.47;;;9.20;99.90;;;;;;5130854;27;20054;-81
2022/11/23 10:27:19;;;;;;;9.10;2.60;;;9.20;99.90;;;;;;5112497;27;20481;-81
2022/11/23 10:29:45;;;;;;;10.10;3.00;;;9.20;99.90;;;;;;5130870;27;20049;-81
2022/11/23 10:32:30;;;;;;;18.70;3.08;;;9.20;99.90;;;;;;5112579;27;20051;-81
2022/11/23 10:35:05;;;;;;;13.27;3.42;;;9.20;99.90;;;;;;5113463;27;20050;-80
2022/11/23 10:37:32;;;;;;;17.23;2.90;;;9.20;99.90;;;;;;5112557;27;20043;-82
2022/11/23 10:39:58;;;;;;;8.23;3.10;;;9.20;99.90;;;;;;5130412;27;20087;-80
2022/11/23 10:42:42;;;;;;;12.07;2.92;;;9.20;99.90;;;;;;5113363;27;20121;-81
2022/11/23 10:45:22;;;;;;;16.58;3.50;;;9.60;99.90;;;;;;5128918;27;20054;-81
2022/11/23 10:47:58;;;;;;;9.30;2.80;;;9.20;99.90;;;;;;5113538;27;20480;-81
2022/11/23 10:50:36;;;;;;;11.10;3.42;;;9.80;99.90;;;;;;5096449;27;20508;-82
2022/11/23 10:53:05;;;;;;;10.48;3.17;;;9.20;99.90;;;;;;5112511;27;20042;-83
2022/11/23 10:55:56;;;;;;;15.57;3.08;;;10.00;99.90;;;;;;5113044;27;20043;-81
2022/11/23 10:58:40;;;;;;;17.35;3.45;;;9.20;99.90;;;;;;5100905;27;20069;-82
2022/11/23 11:01:15;;;;;;;14.82;3.50;;;9.10;99.90;;;;;;5129119;27;20042;-81
2022/11/23 11:03:41;;;;;;;18.27;3.65;;;9.10;99.90;;;;;;5129572;27;20631;-81
2022/11/23 11:06:07;;;;;;;10.80;2.33;;;10.00;99.90;;;;;;5111529;27;20070;-81
2022/11/23 11:08:52;;;;;;;12.45;4.43;;;9.10;99.90;;;;;;5113446;27;20118;-81
2022/11/23 11:11:31;;;;;;;16.27;3.63;;;9.20;99.90;;;;;;5111368;27;20079;-81
2022/11/23 11:14:17;;;;;;;14.15;2.50;;;9.20;99.90;;;;;;5112088;27;20180;-81
2022/11/23 11:16:52;;;;;;;11.50;4.00;;;9.20;99.90;;;;;;5129594;27;20129;-81
2022/11/23 11:19:34;;;;;;;18.38;3.83;;;9.20;99.90;;;;;;5128320;27;20493;-82
2022/11/23 11:22:35;;;;;;;13.93;2.17;;;9.30;99.90;;;;;;5130037;27;20362;-81
2022/11/23 11:25:05;;;;;;;10.60;2.92;;;9.30;99.90;;;;;;5107643;27;20111;-81
2022/11/23 11:27:31;;;;;;;18.23;3.00;;;9.40;99.90;;;;;;5128430;27;20436;-82
2022/11/23 11:30:05;;;;;;;9.15;2.13;;;9.50;99.90;;;;;;5112954;27;20035;-81
2022/11/23 11:32:39;;;;;;;11.75;1.98;;;9.50;99.90;;;;;;5127983;27;20058;-81
2022/11/23 11:35:10;;;;;;;8.98;2.35;;;9.50;99.90;;;;;;5111908;27;20651;-81
2022/11/23 11:37:43;;;;;;;12.68;2.75;;;9.60;99.90;;;;;;5128648;27;20043;-81
2022/11/23 11:40:27;;;;;;;10.98;2.10;;;9.60;99.90;;;;;;5129135;27;20379;-81
2022/11/23 11:42:58;;;;;;;16.85;2.63;;;9.60;99.90;;;;;;5129135;27;20553;-82
2022/11/23 11:45:30;;;;;;;11.90;3.00;;;9.60;99.90;;;;;;5128406;27;20069;-82
2022/11/23 11:48:08;;;;;;;10.20;2.10;;;9.70;99.90;;;;;;5112295;27;20042;-82
2022/11/23 11:50:49;;;;;;;12.30;2.13;;;9.80;99.90;;;;;;5128406;27;20046;-83
2022/11/23 11:53:21;;;;;;;13.07;2.25;;;9.80;99.90;;;;;;5128236;27;20079;-80
2022/11/23 11:56:18;;;;;;;14.85;2.95;;;9.80;99.90;;;;;;5112410;27;20451;-81
2022/11/23 11:58:54;;;;;;;7.78;1.70;;;9.70;99.90;;;;;;5110782;27;20043;-80
2022/11/23 12:01:46;;;;;;;8.15;1.95;;;9.70;99.90;;;;;;5110969;27;20486;-80
2022/11/23 12:04:20;;;;;;;16.30;2.60;;;9.80;99.90;;;;;;5111969;27;20038;-81
2022/11/23 12:06:53;;;;;;;18.02;2.88;;;9.90;99.90;;;;;;5110061;27;20076;-80
2022/11/23 12:09:23;;;;;;;11.35;2.20;;;9.90;99.90;;;;;;5129121;27;20100;-81
2022/11/23 12:11:49;;;;;;;10.95;2.42;;;9.90;99.90;;;;;;5111116;27;20087;-80
2022/11/23 12:14:15;;;;;;;16.45;2.50;;;10.10;99.90;;;;;;5093723;27;20047;-80
2022/11/23 12:17:28;;;;;;;14.98;2.70;;;10.00;99.90;;;;;;5128195;27;20038;-80
2022/11/23 12:20:10;;;;;;;13.60;2.40;;;10.10;99.90;;;;;;5115010;27;20071;-81
2022/11/23 12:22:47;;;;;;;10.43;2.42;;;10.20;99.90;;;;;;5128180;27;20488;-80
2022/11/23 12:25:35;;;;;;;13.55;1.92;;;10.20;99.90;;;;;;5146846;27;20551;-80
2022/11/23 12:28:24;;;;;;;9.55;2.85;;;10.20;99.90;;;;;;5146062;27;20750;-80
2022/11/23 12:31:10;;;;;;;8.80;2.20;;;10.30;99.90;;;;;;5132868;27;20130;-79
2022/11/23 12:33:36;;;;;;;17.85;2.20;;;10.30;99.90;;;;;;5107319;27;20632;-81
2022/11/23 12:36:17;;;;;;;15.13;2.30;;;10.40;99.90;;;;;;5106826;27;20130;-81
2022/11/23 12:39:21;;;;;;;18.55;1.67;;;10.30;99.90;;;;;;5124791;27;20050;-80
2022/11/23 12:42:10;;;;;;;12.80;2.88;;;10.30;99.90;;;;;;5085149;27;20566;-80
2022/11/23 12:44:58;;;;;;;13.07;2.17;;;10.40;99.90;;;;;;5106582;27;20047;-81
2022/11/23 12:47:43;;;;;;;14.00;2.08;;;10.40;99.90;;;;;;5106649;27;20074;-80
2022/11/23 12:50:21;;;;;;;12.90;2.30;;;10.50;99.90;;;;;;5125305;27;20127;-79
2022/11/23 12:53:15;;;;;;;12.10;2.05;;;10.50;99.90;;;;;;5125234;27;20501;-80
2022/11/23 12:56:00;;;;;;;10.60;2.38;;;10.60;99.90;;;;;;5108011;28;20075;-80